sensor_id;sensor_type;location;lat;lon;timestamp;P1;durP1;ratioP1;P2;durP2;ratioP2
76256;SDS011;65074;50.436;8.672;2023-02-27T00:00:03;5.72;;;1.42;;
76256;SDS011;65074;50.436;8.672;2023-02-27T00:05:04;4.55;;;1.52;;
76256;SDS011;65074;50.436;8.672;2023-02-27T00:07:31;4.68;;;1.55;;
76256;SDS011;65074;50.436;8.672;2023-02-27T00:09:57;3.88;;;1.55;;
76256;SDS011;65074;50.436;8.672;2023-02-27T00:12:22;2.58;;;1.52;;
76256;SDS011;65074;50.436;8.672;2023-02-27T00:14:48;2.75;;;1.15;;
76256;SDS011;65074;50.436;8.672;2023-02-27T00:17:14;2.55;;;1.40;;
76256;SDS011;65074;50.436;8.672;2023-02-27T00:19:40;4.47;;;1.58;;
76256;SDS011;65074;50.436;8.672;2023-02-27T00:22:05;1.75;;;1.00;;
76256;SDS011;65074;50.436;8.672;2023-02-27T00:24:30;5.20;;;1.75;;
76256;SDS011;65074;50.436;8.672;2023-02-27T00:26:56;4.13;;;1.25;;
76256;SDS011;65074;50.436;8.672;2023-02-27T00:29:21;2.08;;;1.30;;
76256;SDS011;65074;50.436;8.672;2023-02-27T00:31:50;3.08;;;1.17;;
76256;SDS011;65074;50.436;8.672;2023-02-27T00:34:15;2.13;;;0.88;;
76256;SDS011;65074;50.436;8.672;2023-02-27T00:36:40;1.80;;;1.00;;
76256;SDS011;65074;50.436;8.672;2023-02-27T00:39:06;2.22;;;1.38;;
76256;SDS011;65074;50.436;8.672;2023-02-27T00:41:31;2.35;;;1.45;;
76256;SDS011;65074;50.436;8.672;2023-02-27T00:43:57;3.22;;;1.40;;
76256;SDS011;65074;50.436;8.672;2023-02-27T00:46:22;1.27;;;0.90;;
76256;SDS011;65074;50.436;8.672;2023-02-27T00:48:49;1.25;;;0.82;;
76256;SDS011;65074;50.436;8.672;2023-02-27T00:51:14;1.92;;;1.10;;
76256;SDS011;65074;50.436;8.672;2023-02-27T00:53:40;2.03;;;1.20;;
76256;SDS011;65074;50.436;8.672;2023-02-27T00:56:05;3.10;;;1.10;;
76256;SDS011;65074;50.436;8.672;2023-02-27T00:58:31;2.05;;;1.10;;
76256;SDS011;65074;50.436;8.672;2023-02-27T01:01:00;3.38;;;1.30;;
76256;SDS011;65074;50.436;8.672;2023-02-27T01:03:26;1.70;;;0.93;;
76256;SDS011;65074;50.436;8.672;2023-02-27T01:05:52;1.63;;;0.80;;
76256;SDS011;65074;50.436;8.672;2023-02-27T01:08:17;1.77;;;0.85;;
76256;SDS011;65074;50.436;8.672;2023-02-27T01:10:44;1.05;;;0.80;;
76256;SDS011;65074;50.436;8.672;2023-02-27T01:13:10;2.95;;;0.85;;
76256;SDS011;65074;50.436;8.672;2023-02-27T01:15:35;2.33;;;1.00;;
76256;SDS011;65074;50.436;8.672;2023-02-27T01:18:00;1.10;;;0.82;;
76256;SDS011;65074;50.436;8.672;2023-02-27T01:20:26;2.28;;;0.82;;
76256;SDS011;65074;50.436;8.672;2023-02-27T01:22:52;2.70;;;0.85;;
76256;SDS011;65074;50.436;8.672;2023-02-27T01:25:17;1.75;;;0.98;;
76256;SDS011;65074;50.436;8.672;2023-02-27T01:27:43;1.38;;;0.65;;
76256;SDS011;65074;50.436;8.672;2023-02-27T01:30:08;4.25;;;1.05;;
76256;SDS011;65074;50.436;8.672;2023-02-27T01:32:36;1.90;;;0.70;;
76256;SDS011;65074;50.436;8.672;2023-02-27T01:35:02;1.90;;;0.85;;
76256;SDS011;65074;50.436;8.672;2023-02-27T01:37:28;1.52;;;0.90;;
76256;SDS011;65074;50.436;8.672;2023-02-27T01:39:53;1.33;;;0.77;;
76256;SDS011;65074;50.436;8.672;2023-02-27T01:42:22;2.30;;;1.25;;
76256;SDS011;65074;50.436;8.672;2023-02-27T01:47:44;2.72;;;0.80;;
76256;SDS011;65074;50.436;8.672;2023-02-27T01:50:14;1.02;;;0.65;;
76256;SDS011;65074;50.436;8.672;2023-02-27T01:52:41;2.65;;;1.05;;
76256;SDS011;65074;50.436;8.672;2023-02-27T01:55:10;1.75;;;0.95;;
76256;SDS011;65074;50.436;8.672;2023-02-27T01:57:38;1.88;;;0.90;;
76256;SDS011;65074;50.436;8.672;2023-02-27T02:00:06;1.80;;;1.10;;
76256;SDS011;65074;50.436;8.672;2023-02-27T02:02:38;2.95;;;1.20;;
76256;SDS011;65074;50.436;8.672;2023-02-27T02:05:06;4.88;;;1.58;;
76256;SDS011;65074;50.436;8.672;2023-02-27T02:07:33;5.28;;;1.05;;
76256;SDS011;65074;50.436;8.672;2023-02-27T02:10:02;1.42;;;0.80;;
76256;SDS011;65074;50.436;8.672;2023-02-27T02:12:30;2.42;;;1.00;;
76256;SDS011;65074;50.436;8.672;2023-02-27T02:14:59;1.55;;;0.98;;
76256;SDS011;65074;50.436;8.672;2023-02-27T02:25:39;3.33;;;1.08;;
76256;SDS011;65074;50.436;8.672;2023-02-27T02:30:49;2.00;;;1.15;;
76256;SDS011;65074;50.436;8.672;2023-02-27T02:37:09;2.25;;;1.02;;
76256;SDS011;65074;50.436;8.672;2023-02-27T02:39:53;1.23;;;0.80;;
76256;SDS011;65074;50.436;8.672;2023-02-27T02:42:35;2.88;;;1.67;;
76256;SDS011;65074;50.436;8.672;2023-02-27T02:45:21;2.42;;;1.30;;
76256;SDS011;65074;50.436;8.672;2023-02-27T02:48:03;2.75;;;1.08;;
76256;SDS011;65074;50.436;8.672;2023-02-27T02:50:53;2.03;;;1.20;;
76256;SDS011;65074;50.436;8.672;2023-02-27T02:58:45;2.70;;;1.35;;
76256;SDS011;65074;50.436;8.672;2023-02-27T03:01:20;2.75;;;1.27;;
76256;SDS011;65074;50.436;8.672;2023-02-27T03:06:52;1.98;;;0.80;;
76256;SDS011;65074;50.436;8.672;2023-02-27T03:09:42;2.60;;;1.17;;
76256;SDS011;65074;50.436;8.672;2023-02-27T03:12:13;1.58;;;1.27;;
76256;SDS011;65074;50.436;8.672;2023-02-27T03:15:24;3.40;;;1.48;;
76256;SDS011;65074;50.436;8.672;2023-02-27T03:20:07;4.55;;;1.33;;
76256;SDS011;65074;50.436;8.672;2023-02-27T03:22:37;1.77;;;1.27;;
76256;SDS011;65074;50.436;8.672;2023-02-27T03:25:08;1.65;;;0.93;;
76256;SDS011;65074;50.436;8.672;2023-02-27T03:27:42;3.40;;;1.25;;
76256;SDS011;65074;50.436;8.672;2023-02-27T03:30:17;1.50;;;1.15;;
76256;SDS011;65074;50.436;8.672;2023-02-27T03:32:55;2.97;;;1.45;;
76256;SDS011;65074;50.436;8.672;2023-02-27T03:35:36;1.90;;;0.77;;
76256;SDS011;65074;50.436;8.672;2023-02-27T03:38:15;3.10;;;1.20;;
76256;SDS011;65074;50.436;8.672;2023-02-27T03:40:48;2.63;;;0.98;;
76256;SDS011;65074;50.436;8.672;2023-02-27T03:46:40;1.85;;;1.08;;
76256;SDS011;65074;50.436;8.672;2023-02-27T03:49:06;2.00;;;0.70;;
76256;SDS011;65074;50.436;8.672;2023-02-27T03:51:31;4.50;;;1.13;;
76256;SDS011;65074;50.436;8.672;2023-02-27T03:54:10;1.63;;;0.93;;
76256;SDS011;65074;50.436;8.672;2023-02-27T03:56:42;1.60;;;1.00;;
76256;SDS011;65074;50.436;8.672;2023-02-27T03:59:12;1.77;;;0.80;;
76256;SDS011;65074;50.436;8.672;2023-02-27T04:01:43;5.20;;;1.55;;
76256;SDS011;65074;50.436;8.672;2023-02-27T04:04:10;2.25;;;1.40;;
76256;SDS011;65074;50.436;8.672;2023-02-27T04:06:57;1.90;;;0.95;;
76256;SDS011;65074;50.436;8.672;2023-02-27T04:13:02;3.47;;;1.75;;
76256;SDS011;65074;50.436;8.672;2023-02-27T04:26:45;2.47;;;1.00;;
76256;SDS011;65074;50.436;8.672;2023-02-27T04:29:22;2.15;;;1.00;;
76256;SDS011;65074;50.436;8.672;2023-02-27T04:32:00;1.45;;;0.80;;
76256;SDS011;65074;50.436;8.672;2023-02-27T04:34:31;3.85;;;1.38;;
76256;SDS011;65074;50.436;8.672;2023-02-27T04:39:50;2.65;;;0.80;;
76256;SDS011;65074;50.436;8.672;2023-02-27T04:42:20;4.20;;;0.90;;
76256;SDS011;65074;50.436;8.672;2023-02-27T04:44:50;3.90;;;1.65;;
76256;SDS011;65074;50.436;8.672;2023-02-27T04:47:19;1.65;;;0.93;;
76256;SDS011;65074;50.436;8.672;2023-02-27T04:49:50;1.35;;;0.95;;
76256;SDS011;65074;50.436;8.672;2023-02-27T04:52:24;2.25;;;1.00;;
76256;SDS011;65074;50.436;8.672;2023-02-27T04:54:55;2.55;;;1.00;;
76256;SDS011;65074;50.436;8.672;2023-02-27T04:57:33;1.42;;;0.93;;
76256;SDS011;65074;50.436;8.672;2023-02-27T05:00:07;5.40;;;2.08;;
76256;SDS011;65074;50.436;8.672;2023-02-27T05:02:37;1.20;;;0.68;;
76256;SDS011;65074;50.436;8.672;2023-02-27T05:07:35;1.45;;;1.00;;
76256;SDS011;65074;50.436;8.672;2023-02-27T05:10:07;6.63;;;2.50;;
76256;SDS011;65074;50.436;8.672;2023-02-27T05:12:40;2.50;;;1.25;;
76256;SDS011;65074;50.436;8.672;2023-02-27T05:15:17;3.35;;;1.52;;
76256;SDS011;65074;50.436;8.672;2023-02-27T05:17:52;4.07;;;1.55;;
76256;SDS011;65074;50.436;8.672;2023-02-27T05:20:25;3.67;;;1.15;;
76256;SDS011;65074;50.436;8.672;2023-02-27T05:23:11;2.00;;;1.38;;
76256;SDS011;65074;50.436;8.672;2023-02-27T05:25:48;3.47;;;1.70;;
76256;SDS011;65074;50.436;8.672;2023-02-27T05:28:49;1.20;;;0.95;;
76256;SDS011;65074;50.436;8.672;2023-02-27T05:31:36;0.93;;;0.82;;
76256;SDS011;65074;50.436;8.672;2023-02-27T05:34:12;1.60;;;1.05;;
76256;SDS011;65074;50.436;8.672;2023-02-27T05:36:49;1.48;;;1.27;;
76256;SDS011;65074;50.436;8.672;2023-02-27T05:39:16;1.65;;;1.15;;
76256;SDS011;65074;50.436;8.672;2023-02-27T05:41:49;3.70;;;1.20;;
76256;SDS011;65074;50.436;8.672;2023-02-27T05:44:31;0.68;;;0.45;;
76256;SDS011;65074;50.436;8.672;2023-02-27T05:47:09;1.55;;;0.88;;
76256;SDS011;65074;50.436;8.672;2023-02-27T05:49:48;2.20;;;1.05;;
76256;SDS011;65074;50.436;8.672;2023-02-27T05:52:19;1.33;;;0.77;;
76256;SDS011;65074;50.436;8.672;2023-02-27T05:57:45;2.70;;;1.10;;
76256;SDS011;65074;50.436;8.672;2023-02-27T06:03:08;2.03;;;0.50;;
76256;SDS011;65074;50.436;8.672;2023-02-27T06:05:35;2.15;;;0.90;;
76256;SDS011;65074;50.436;8.672;2023-02-27T06:08:02;1.23;;;0.47;;
76256;SDS011;65074;50.436;8.672;2023-02-27T06:10:27;2.28;;;1.30;;
76256;SDS011;65074;50.436;8.672;2023-02-27T06:12:53;2.65;;;1.08;;
76256;SDS011;65074;50.436;8.672;2023-02-27T06:15:18;3.28;;;1.25;;
76256;SDS011;65074;50.436;8.672;2023-02-27T06:17:44;2.60;;;1.23;;
76256;SDS011;65074;50.436;8.672;2023-02-27T06:20:09;2.70;;;1.70;;
76256;SDS011;65074;50.436;8.672;2023-02-27T06:22:35;2.72;;;1.30;;
76256;SDS011;65074;50.436;8.672;2023-02-27T06:25:01;1.80;;;1.23;;
76256;SDS011;65074;50.436;8.672;2023-02-27T06:27:27;2.47;;;1.00;;
76256;SDS011;65074;50.436;8.672;2023-02-27T06:29:52;1.02;;;0.63;;
76256;SDS011;65074;50.436;8.672;2023-02-27T06:32:18;1.65;;;0.90;;
76256;SDS011;65074;50.436;8.672;2023-02-27T06:34:45;1.40;;;1.15;;
76256;SDS011;65074;50.436;8.672;2023-02-27T06:37:10;2.22;;;1.17;;
76256;SDS011;65074;50.436;8.672;2023-02-27T06:39:35;2.42;;;1.38;;
76256;SDS011;65074;50.436;8.672;2023-02-27T06:42:01;3.97;;;1.20;;
76256;SDS011;65074;50.436;8.672;2023-02-27T06:44:27;1.50;;;1.02;;
76256;SDS011;65074;50.436;8.672;2023-02-27T06:46:53;4.18;;;1.42;;
76256;SDS011;65074;50.436;8.672;2023-02-27T06:49:19;3.53;;;1.50;;
76256;SDS011;65074;50.436;8.672;2023-02-27T06:51:44;0.93;;;0.55;;
76256;SDS011;65074;50.436;8.672;2023-02-27T06:54:09;1.73;;;0.52;;
76256;SDS011;65074;50.436;8.672;2023-02-27T06:56:35;2.00;;;1.13;;
76256;SDS011;65074;50.436;8.672;2023-02-27T06:59:00;2.55;;;0.77;;
76256;SDS011;65074;50.436;8.672;2023-02-27T07:01:25;2.42;;;1.15;;
76256;SDS011;65074;50.436;8.672;2023-02-27T07:03:51;0.95;;;0.80;;
76256;SDS011;65074;50.436;8.672;2023-02-27T07:06:16;5.35;;;1.00;;
76256;SDS011;65074;50.436;8.672;2023-02-27T07:08:42;2.42;;;1.08;;
76256;SDS011;65074;50.436;8.672;2023-02-27T07:11:07;2.38;;;1.02;;
76256;SDS011;65074;50.436;8.672;2023-02-27T07:13:32;2.15;;;1.02;;
76256;SDS011;65074;50.436;8.672;2023-02-27T07:15:58;2.60;;;1.10;;
76256;SDS011;65074;50.436;8.672;2023-02-27T07:18:23;1.38;;;1.00;;
76256;SDS011;65074;50.436;8.672;2023-02-27T07:20:50;2.47;;;1.10;;
76256;SDS011;65074;50.436;8.672;2023-02-27T07:23:16;2.05;;;1.02;;
76256;SDS011;65074;50.436;8.672;2023-02-27T07:25:41;1.50;;;0.90;;
76256;SDS011;65074;50.436;8.672;2023-02-27T07:28:07;2.03;;;0.98;;
76256;SDS011;65074;50.436;8.672;2023-02-27T07:30:32;4.72;;;1.30;;
76256;SDS011;65074;50.436;8.672;2023-02-27T07:32:58;3.78;;;1.65;;
76256;SDS011;65074;50.436;8.672;2023-02-27T07:35:23;2.63;;;1.50;;
76256;SDS011;65074;50.436;8.672;2023-02-27T07:37:48;3.30;;;0.95;;
76256;SDS011;65074;50.436;8.672;2023-02-27T07:40:14;1.67;;;1.00;;
76256;SDS011;65074;50.436;8.672;2023-02-27T07:42:39;1.52;;;0.93;;
76256;SDS011;65074;50.436;8.672;2023-02-27T07:45:05;2.47;;;1.10;;
76256;SDS011;65074;50.436;8.672;2023-02-27T07:47:31;3.28;;;1.15;;
76256;SDS011;65074;50.436;8.672;2023-02-27T07:49:56;4.55;;;1.98;;
76256;SDS011;65074;50.436;8.672;2023-02-27T07:52:21;3.17;;;1.30;;
76256;SDS011;65074;50.436;8.672;2023-02-27T07:54:47;2.45;;;1.25;;
76256;SDS011;65074;50.436;8.672;2023-02-27T07:57:12;1.90;;;0.95;;
76256;SDS011;65074;50.436;8.672;2023-02-27T07:59:38;3.05;;;1.42;;
76256;SDS011;65074;50.436;8.672;2023-02-27T08:02:03;1.63;;;0.93;;
76256;SDS011;65074;50.436;8.672;2023-02-27T08:04:29;1.63;;;0.77;;
76256;SDS011;65074;50.436;8.672;2023-02-27T08:06:54;2.17;;;0.77;;
76256;SDS011;65074;50.436;8.672;2023-02-27T08:09:19;2.03;;;1.15;;
76256;SDS011;65074;50.436;8.672;2023-02-27T08:11:45;1.85;;;1.00;;
76256;SDS011;65074;50.436;8.672;2023-02-27T08:14:10;2.13;;;1.30;;
76256;SDS011;65074;50.436;8.672;2023-02-27T08:16:36;4.70;;;1.38;;
76256;SDS011;65074;50.436;8.672;2023-02-27T08:19:01;1.77;;;1.02;;
76256;SDS011;65074;50.436;8.672;2023-02-27T08:21:27;4.60;;;1.40;;
76256;SDS011;65074;50.436;8.672;2023-02-27T08:23:53;2.13;;;1.25;;
76256;SDS011;65074;50.436;8.672;2023-02-27T08:26:19;3.05;;;1.10;;
76256;SDS011;65074;50.436;8.672;2023-02-27T08:28:45;2.03;;;0.93;;
76256;SDS011;65074;50.436;8.672;2023-02-27T08:31:10;1.00;;;0.73;;
76256;SDS011;65074;50.436;8.672;2023-02-27T08:33:36;2.65;;;1.08;;
76256;SDS011;65074;50.436;8.672;2023-02-27T08:36:01;1.80;;;1.08;;
76256;SDS011;65074;50.436;8.672;2023-02-27T08:38:27;0.75;;;0.60;;
76256;SDS011;65074;50.436;8.672;2023-02-27T08:40:52;1.27;;;0.90;;
76256;SDS011;65074;50.436;8.672;2023-02-27T08:43:18;2.75;;;1.00;;
76256;SDS011;65074;50.436;8.672;2023-02-27T08:45:47;1.40;;;1.00;;
76256;SDS011;65074;50.436;8.672;2023-02-27T08:48:13;2.05;;;0.70;;
76256;SDS011;65074;50.436;8.672;2023-02-27T08:50:40;1.65;;;0.80;;
76256;SDS011;65074;50.436;8.672;2023-02-27T08:53:06;1.67;;;0.70;;
76256;SDS011;65074;50.436;8.672;2023-02-27T08:55:32;2.03;;;1.00;;
76256;SDS011;65074;50.436;8.672;2023-02-27T08:58:00;1.10;;;0.70;;
76256;SDS011;65074;50.436;8.672;2023-02-27T09:00:26;2.72;;;0.73;;
76256;SDS011;65074;50.436;8.672;2023-02-27T09:02:53;1.25;;;0.70;;
76256;SDS011;65074;50.436;8.672;2023-02-27T09:05:18;1.15;;;0.70;;
76256;SDS011;65074;50.436;8.672;2023-02-27T09:07:44;1.15;;;0.60;;
76256;SDS011;65074;50.436;8.672;2023-02-27T09:10:10;1.13;;;0.60;;
76256;SDS011;65074;50.436;8.672;2023-02-27T09:12:37;0.65;;;0.50;;
76256;SDS011;65074;50.436;8.672;2023-02-27T09:15:03;1.67;;;0.77;;
76256;SDS011;65074;50.436;8.672;2023-02-27T09:17:30;1.17;;;0.50;;
76256;SDS011;65074;50.436;8.672;2023-02-27T09:19:55;4.50;;;0.80;;
76256;SDS011;65074;50.436;8.672;2023-02-27T09:22:21;1.10;;;0.57;;
76256;SDS011;65074;50.436;8.672;2023-02-27T09:24:46;3.65;;;0.68;;
76256;SDS011;65074;50.436;8.672;2023-02-27T09:27:12;2.63;;;0.70;;
76256;SDS011;65074;50.436;8.672;2023-02-27T09:29:37;2.88;;;0.80;;
76256;SDS011;65074;50.436;8.672;2023-02-27T09:32:03;1.10;;;0.60;;
76256;SDS011;65074;50.436;8.672;2023-02-27T09:34:28;1.05;;;0.70;;
76256;SDS011;65074;50.436;8.672;2023-02-27T09:36:53;1.65;;;0.57;;
76256;SDS011;65074;50.436;8.672;2023-02-27T09:39:22;0.75;;;0.40;;
76256;SDS011;65074;50.436;8.672;2023-02-27T09:44:53;0.70;;;0.50;;
76256;SDS011;65074;50.436;8.672;2023-02-27T09:49:59;1.55;;;0.68;;
76256;SDS011;65074;50.436;8.672;2023-02-27T09:52:28;1.73;;;0.88;;
76256;SDS011;65074;50.436;8.672;2023-02-27T09:54:55;3.70;;;0.77;;
76256;SDS011;65074;50.436;8.672;2023-02-27T09:59:59;3.05;;;0.60;;
76256;SDS011;65074;50.436;8.672;2023-02-27T10:02:39;2.10;;;0.52;;
76256;SDS011;65074;50.436;8.672;2023-02-27T10:08:17;1.00;;;0.32;;
76256;SDS011;65074;50.436;8.672;2023-02-27T10:11:02;0.13;;;0.13;;
76256;SDS011;65074;50.436;8.672;2023-02-27T10:13:44;0.90;;;0.45;;
76256;SDS011;65074;50.436;8.672;2023-02-27T10:16:18;3.65;;;0.90;;
76256;SDS011;65074;50.436;8.672;2023-02-27T10:18:47;1.48;;;0.50;;
76256;SDS011;65074;50.436;8.672;2023-02-27T10:21:20;1.27;;;0.80;;
76256;SDS011;65074;50.436;8.672;2023-02-27T10:26:26;0.40;;;0.40;;
76256;SDS011;65074;50.436;8.672;2023-02-27T10:28:54;1.40;;;0.70;;
76256;SDS011;65074;50.436;8.672;2023-02-27T10:31:26;2.50;;;1.00;;
76256;SDS011;65074;50.436;8.672;2023-02-27T10:33:55;1.08;;;0.82;;
76256;SDS011;65074;50.436;8.672;2023-02-27T10:36:22;2.17;;;0.55;;
76256;SDS011;65074;50.436;8.672;2023-02-27T10:38:49;0.57;;;0.50;;
76256;SDS011;65074;50.436;8.672;2023-02-27T10:41:19;1.13;;;0.90;;
76256;SDS011;65074;50.436;8.672;2023-02-27T10:43:45;1.60;;;0.50;;
76256;SDS011;65074;50.436;8.672;2023-02-27T10:48:59;1.77;;;0.80;;
76256;SDS011;65074;50.436;8.672;2023-02-27T10:51:33;2.60;;;0.60;;
76256;SDS011;65074;50.436;8.672;2023-02-27T10:54:14;1.60;;;0.70;;
76256;SDS011;65074;50.436;8.672;2023-02-27T10:56:55;1.15;;;0.40;;
76256;SDS011;65074;50.436;8.672;2023-02-27T10:59:24;0.95;;;0.60;;
76256;SDS011;65074;50.436;8.672;2023-02-27T11:01:59;1.23;;;0.60;;
76256;SDS011;65074;50.436;8.672;2023-02-27T11:04:37;1.30;;;0.50;;
76256;SDS011;65074;50.436;8.672;2023-02-27T11:07:08;0.82;;;0.60;;
76256;SDS011;65074;50.436;8.672;2023-02-27T11:09:35;0.63;;;0.50;;
76256;SDS011;65074;50.436;8.672;2023-02-27T11:12:21;0.55;;;0.32;;
76256;SDS011;65074;50.436;8.672;2023-02-27T11:14:52;1.98;;;0.60;;
76256;SDS011;65074;50.436;8.672;2023-02-27T11:17:24;0.52;;;0.40;;
76256;SDS011;65074;50.436;8.672;2023-02-27T11:19:53;0.63;;;0.57;;
76256;SDS011;65074;50.436;8.672;2023-02-27T11:22:20;0.90;;;0.40;;
76256;SDS011;65074;50.436;8.672;2023-02-27T11:24:48;0.70;;;0.38;;
76256;SDS011;65074;50.436;8.672;2023-02-27T11:27:19;1.40;;;0.68;;
76256;SDS011;65074;50.436;8.672;2023-02-27T11:29:56;0.65;;;0.50;;
76256;SDS011;65074;50.436;8.672;2023-02-27T11:32:25;0.57;;;0.20;;
76256;SDS011;65074;50.436;8.672;2023-02-27T11:34:56;1.27;;;0.60;;
76256;SDS011;65074;50.436;8.672;2023-02-27T11:37:30;0.25;;;0.25;;
76256;SDS011;65074;50.436;8.672;2023-02-27T11:42:42;0.60;;;0.30;;
76256;SDS011;65074;50.436;8.672;2023-02-27T11:47:46;2.40;;;0.50;;
76256;SDS011;65074;50.436;8.672;2023-02-27T11:53:19;1.35;;;0.43;;
76256;SDS011;65074;50.436;8.672;2023-02-27T11:55:48;0.80;;;0.70;;
76256;SDS011;65074;50.436;8.672;2023-02-27T11:58:20;0.80;;;0.43;;
76256;SDS011;65074;50.436;8.672;2023-02-27T12:00:48;1.17;;;0.50;;
76256;SDS011;65074;50.436;8.672;2023-02-27T12:03:23;0.77;;;0.47;;
76256;SDS011;65074;50.436;8.672;2023-02-27T12:05:55;0.60;;;0.35;;
76256;SDS011;65074;50.436;8.672;2023-02-27T12:11:03;1.00;;;0.40;;
76256;SDS011;65074;50.436;8.672;2023-02-27T12:13:38;0.75;;;0.32;;
76256;SDS011;65074;50.436;8.672;2023-02-27T12:18:58;0.85;;;0.60;;
76256;SDS011;65074;50.436;8.672;2023-02-27T12:21:35;0.77;;;0.30;;
76256;SDS011;65074;50.436;8.672;2023-02-27T12:26:47;1.63;;;0.45;;
76256;SDS011;65074;50.436;8.672;2023-02-27T12:29:19;0.38;;;0.30;;
76256;SDS011;65074;50.436;8.672;2023-02-27T12:31:51;1.15;;;0.63;;
76256;SDS011;65074;50.436;8.672;2023-02-27T12:34:25;0.90;;;0.40;;
76256;SDS011;65074;50.436;8.672;2023-02-27T12:36:53;0.30;;;0.30;;
76256;SDS011;65074;50.436;8.672;2023-02-27T12:39:27;1.63;;;0.50;;
76256;SDS011;65074;50.436;8.672;2023-02-27T12:44:50;1.15;;;0.50;;
76256;SDS011;65074;50.436;8.672;2023-02-27T12:47:45;1.55;;;0.40;;
76256;SDS011;65074;50.436;8.672;2023-02-27T12:50:33;1.42;;;0.40;;
76256;SDS011;65074;50.436;8.672;2023-02-27T12:55:52;1.48;;;0.57;;
76256;SDS011;65074;50.436;8.672;2023-02-27T13:04:06;0.73;;;0.40;;
76256;SDS011;65074;50.436;8.672;2023-02-27T13:09:19;1.35;;;0.40;;
76256;SDS011;65074;50.436;8.672;2023-02-27T13:11:53;0.30;;;0.30;;
76256;SDS011;65074;50.436;8.672;2023-02-27T13:19:49;0.57;;;0.30;;
76256;SDS011;65074;50.436;8.672;2023-02-27T13:25:06;1.30;;;0.32;;
76256;SDS011;65074;50.436;8.672;2023-02-27T13:27:39;0.80;;;0.35;;
76256;SDS011;65074;50.436;8.672;2023-02-27T13:30:13;1.50;;;0.68;;
76256;SDS011;65074;50.436;8.672;2023-02-27T13:33:05;1.92;;;0.50;;
76256;SDS011;65074;50.436;8.672;2023-02-27T13:35:46;0.80;;;0.60;;
76256;SDS011;65074;50.436;8.672;2023-02-27T13:38:30;1.00;;;0.38;;
76256;SDS011;65074;50.436;8.672;2023-02-27T13:40:56;0.75;;;0.40;;
76256;SDS011;65074;50.436;8.672;2023-02-27T13:43:33;0.38;;;0.28;;
76256;SDS011;65074;50.436;8.672;2023-02-27T13:46:01;0.88;;;0.40;;
76256;SDS011;65074;50.436;8.672;2023-02-27T13:48:34;2.53;;;0.50;;
76256;SDS011;65074;50.436;8.672;2023-02-27T13:51:01;0.40;;;0.40;;
76256;SDS011;65074;50.436;8.672;2023-02-27T13:53:27;1.20;;;0.30;;
76256;SDS011;65074;50.436;8.672;2023-02-27T13:55:57;0.65;;;0.40;;
76256;SDS011;65074;50.436;8.672;2023-02-27T13:58:50;1.17;;;0.45;;
76256;SDS011;65074;50.436;8.672;2023-02-27T14:01:16;0.25;;;0.25;;
76256;SDS011;65074;50.436;8.672;2023-02-27T14:03:53;0.50;;;0.45;;
76256;SDS011;65074;50.436;8.672;2023-02-27T14:06:23;1.95;;;0.40;;
76256;SDS011;65074;50.436;8.672;2023-02-27T14:08:50;0.95;;;0.50;;
76256;SDS011;65074;50.436;8.672;2023-02-27T14:11:24;0.85;;;0.43;;
76256;SDS011;65074;50.436;8.672;2023-02-27T14:19:48;1.20;;;0.55;;
76256;SDS011;65074;50.436;8.672;2023-02-27T14:21:58;1.33;;;0.40;;
76256;SDS011;65074;50.436;8.672;2023-02-27T14:24:53;0.50;;;0.30;;
76256;SDS011;65074;50.436;8.672;2023-02-27T14:27:26;1.70;;;0.40;;
76256;SDS011;65074;50.436;8.672;2023-02-27T14:29:59;0.20;;;0.20;;
76256;SDS011;65074;50.436;8.672;2023-02-27T14:32:30;0.50;;;0.32;;
76256;SDS011;65074;50.436;8.672;2023-02-27T14:34:58;0.90;;;0.70;;
76256;SDS011;65074;50.436;8.672;2023-02-27T14:37:25;1.00;;;0.43;;
76256;SDS011;65074;50.436;8.672;2023-02-27T14:39:52;2.33;;;1.00;;
76256;SDS011;65074;50.436;8.672;2023-02-27T14:45:19;0.88;;;0.30;;
76256;SDS011;65074;50.436;8.672;2023-02-27T14:47:47;0.75;;;0.43;;
76256;SDS011;65074;50.436;8.672;2023-02-27T14:50:25;1.58;;;0.70;;
76256;SDS011;65074;50.436;8.672;2023-02-27T14:52:53;2.72;;;1.13;;
76256;SDS011;65074;50.436;8.672;2023-02-27T14:57:53;1.15;;;0.80;;
76256;SDS011;65074;50.436;8.672;2023-02-27T15:00:36;5.30;;;1.30;;
76256;SDS011;65074;50.436;8.672;2023-02-27T15:03:15;2.35;;;1.00;;
76256;SDS011;65074;50.436;8.672;2023-02-27T15:05:43;1.80;;;0.90;;
76256;SDS011;65074;50.436;8.672;2023-02-27T15:08:13;1.58;;;0.93;;
76256;SDS011;65074;50.436;8.672;2023-02-27T15:10:41;3.45;;;0.75;;
76256;SDS011;65074;50.436;8.672;2023-02-27T15:13:14;2.28;;;0.98;;
76256;SDS011;65074;50.436;8.672;2023-02-27T15:18:48;1.08;;;0.75;;
76256;SDS011;65074;50.436;8.672;2023-02-27T15:21:37;1.52;;;0.95;;
76256;SDS011;65074;50.436;8.672;2023-02-27T15:24:04;2.75;;;1.30;;
76256;SDS011;65074;50.436;8.672;2023-02-27T15:26:36;1.00;;;0.82;;
76256;SDS011;65074;50.436;8.672;2023-02-27T15:29:04;0.90;;;0.60;;
76256;SDS011;65074;50.436;8.672;2023-02-27T15:31:30;1.40;;;0.50;;
76256;SDS011;65074;50.436;8.672;2023-02-27T15:33:57;1.42;;;0.50;;
76256;SDS011;65074;50.436;8.672;2023-02-27T15:36:25;1.30;;;0.70;;
76256;SDS011;65074;50.436;8.672;2023-02-27T15:41:49;0.60;;;0.40;;
76256;SDS011;65074;50.436;8.672;2023-02-27T15:44:17;1.02;;;0.63;;
76256;SDS011;65074;50.436;8.672;2023-02-27T15:46:47;0.65;;;0.50;;
76256;SDS011;65074;50.436;8.672;2023-02-27T15:49:14;3.15;;;0.80;;
76256;SDS011;65074;50.436;8.672;2023-02-27T15:51:41;1.50;;;0.98;;
76256;SDS011;65074;50.436;8.672;2023-02-27T15:54:08;0.60;;;0.43;;
76256;SDS011;65074;50.436;8.672;2023-02-27T15:56:34;0.70;;;0.60;;
76256;SDS011;65074;50.436;8.672;2023-02-27T15:59:02;1.48;;;0.60;;
76256;SDS011;65074;50.436;8.672;2023-02-27T16:01:29;0.57;;;0.50;;
76256;SDS011;65074;50.436;8.672;2023-02-27T16:03:59;1.67;;;0.52;;
76256;SDS011;65074;50.436;8.672;2023-02-27T16:06:29;1.50;;;0.90;;
76256;SDS011;65074;50.436;8.672;2023-02-27T16:09:00;0.40;;;0.30;;
76256;SDS011;65074;50.436;8.672;2023-02-27T16:11:29;0.77;;;0.60;;
76256;SDS011;65074;50.436;8.672;2023-02-27T16:13:57;1.42;;;0.93;;
76256;SDS011;65074;50.436;8.672;2023-02-27T16:18:55;1.75;;;0.50;;
76256;SDS011;65074;50.436;8.672;2023-02-27T16:21:23;1.70;;;0.65;;
76256;SDS011;65074;50.436;8.672;2023-02-27T16:23:50;1.48;;;0.50;;
76256;SDS011;65074;50.436;8.672;2023-02-27T16:31:52;0.47;;;0.47;;
76256;SDS011;65074;50.436;8.672;2023-02-27T16:37:04;0.90;;;0.52;;
76256;SDS011;65074;50.436;8.672;2023-02-27T16:39:31;0.90;;;0.60;;
76256;SDS011;65074;50.436;8.672;2023-02-27T16:41:58;1.60;;;0.60;;
76256;SDS011;65074;50.436;8.672;2023-02-27T16:44:25;1.58;;;0.60;;
76256;SDS011;65074;50.436;8.672;2023-02-27T16:46:51;1.95;;;0.80;;
76256;SDS011;65074;50.436;8.672;2023-02-27T16:51:47;0.77;;;0.55;;
76256;SDS011;65074;50.436;8.672;2023-02-27T16:54:13;0.80;;;0.45;;
76256;SDS011;65074;50.436;8.672;2023-02-27T16:56:40;0.77;;;0.60;;
76256;SDS011;65074;50.436;8.672;2023-02-27T16:59:06;1.08;;;0.52;;
76256;SDS011;65074;50.436;8.672;2023-02-27T17:01:31;3.95;;;0.60;;
76256;SDS011;65074;50.436;8.672;2023-02-27T17:03:57;2.92;;;0.63;;
76256;SDS011;65074;50.436;8.672;2023-02-27T17:06:23;0.60;;;0.47;;
76256;SDS011;65074;50.436;8.672;2023-02-27T17:08:49;3.35;;;0.60;;
76256;SDS011;65074;50.436;8.672;2023-02-27T17:11:14;0.82;;;0.60;;
76256;SDS011;65074;50.436;8.672;2023-02-27T17:13:39;1.33;;;0.52;;
76256;SDS011;65074;50.436;8.672;2023-02-27T17:16:05;1.02;;;0.32;;
76256;SDS011;65074;50.436;8.672;2023-02-27T17:18:31;0.93;;;0.50;;
76256;SDS011;65074;50.436;8.672;2023-02-27T17:21:01;2.15;;;0.57;;
76256;SDS011;65074;50.436;8.672;2023-02-27T17:23:28;0.57;;;0.32;;
76256;SDS011;65074;50.436;8.672;2023-02-27T17:25:53;1.50;;;1.02;;
76256;SDS011;65074;50.436;8.672;2023-02-27T17:28:20;0.82;;;0.40;;